createdAt,value
2023-03-01T00:01:49.351Z,101267.75
2023-03-01T00:04:17.875Z,101279.22
2023-03-01T00:06:49.488Z,101274.09
2023-03-01T00:09:17.934Z,101274.09
2023-03-01T00:11:46.711Z,101274.19
2023-03-01T00:14:17.440Z,101267.31
2023-03-01T00:16:46.416Z,101254.56
2023-03-01T00:19:18.315Z,101262.97
2023-03-01T00:21:47.529Z,101247.22
2023-03-01T00:24:16.053Z,101243.94
2023-03-01T00:26:44.904Z,101242.25
2023-03-01T00:29:13.238Z,101242.25
2023-03-01T00:31:41.793Z,101236.31
2023-03-01T00:34:10.833Z,101248.50
2023-03-01T00:36:39.611Z,101247.69
2023-03-01T00:39:13.067Z,101237.16
2023-03-01T00:41:42.329Z,101221.66
2023-03-01T00:44:10.992Z,101238.22
2023-03-01T00:46:39.640Z,101236.50
2023-03-01T00:49:08.136Z,101233.13
2023-03-01T00:51:36.845Z,101221.75
2023-03-01T00:54:05.286Z,101233.34
2023-03-01T00:56:34.400Z,101232.47
2023-03-01T00:59:03.390Z,101227.16
2023-03-01T01:01:32.416Z,101232.63
2023-03-01T01:04:03.871Z,101226.44
2023-03-01T01:06:45.831Z,101223.88
2023-03-01T01:09:19.709Z,101214.22
2023-03-01T01:11:51.218Z,101203.72
2023-03-01T01:14:19.972Z,101199.38
2023-03-01T01:16:48.948Z,101206.59
2023-03-01T01:19:17.594Z,101194.25
2023-03-01T01:21:46.508Z,101193.44
2023-03-01T01:24:15.217Z,101175.78
2023-03-01T01:26:44.407Z,101174.19
2023-03-01T01:29:13.100Z,101181.31
2023-03-01T01:31:42.843Z,101168.34
2023-03-01T01:34:17.086Z,101155.41
2023-03-01T01:36:50.044Z,101148.53
2023-03-01T01:39:18.485Z,101169.22
2023-03-01T01:41:47.248Z,101145.53
2023-03-01T01:44:22.260Z,101157.88
2023-03-01T01:47:06.519Z,101155.22
2023-03-01T01:49:38.777Z,101160.63
2023-03-01T01:52:28.506Z,101148.41
2023-03-01T01:55:08.311Z,101145.88
2023-03-01T01:57:46.189Z,101138.13
2023-03-01T02:00:21.527Z,101131.22
2023-03-01T02:02:53.277Z,101137.28
2023-03-01T02:05:28.010Z,101132.91
2023-03-01T02:07:57.509Z,101130.38
2023-03-01T02:10:25.848Z,101131.22
2023-03-01T02:12:54.589Z,101127.84
2023-03-01T02:15:24.459Z,101120.81
2023-03-01T02:17:53.577Z,101120.81
2023-03-01T02:20:24.748Z,101115.50
2023-03-01T02:22:53.482Z,101112.22
2023-03-01T02:26:07.568Z,101109.56
2023-03-01T02:28:38.030Z,101107.03
2023-03-01T02:31:26.584Z,101092.25
2023-03-01T02:33:55.538Z,101080.41
2023-03-01T02:36:31.538Z,101098.34
2023-03-01T02:39:01.317Z,101093.25
2023-03-01T02:41:32.299Z,101093.97
2023-03-01T02:44:01.419Z,101088.38
2023-03-01T02:46:31.210Z,101085.63
2023-03-01T02:49:00.447Z,101084.53
2023-03-01T02:51:36.034Z,101069.78
2023-03-01T02:54:30.102Z,101070.44
2023-03-01T02:56:58.644Z,101066.06
2023-03-01T02:59:32.460Z,101067.03
2023-03-01T03:02:02.091Z,101059.91
2023-03-01T03:04:30.850Z,101058.22
2023-03-01T03:06:59.751Z,101053.03
2023-03-01T03:09:29.601Z,101049.50
2023-03-01T03:11:58.621Z,101050.94
2023-03-01T03:14:27.671Z,101062.88
2023-03-01T03:16:56.341Z,101045.38
2023-03-01T03:19:25.132Z,101048.03
2023-03-01T03:21:53.692Z,101056.09
2023-03-01T03:24:22.340Z,101061.41
2023-03-01T03:26:50.721Z,101048.28
2023-03-01T03:29:19.439Z,101057.16
2023-03-01T03:31:47.924Z,101050.94
2023-03-01T03:34:19.251Z,101053.78
2023-03-01T03:36:47.670Z,101043.16
2023-03-01T03:39:16.338Z,101046.78
2023-03-01T03:41:44.641Z,101046.03
2023-03-01T03:44:13.239Z,101043.38
2023-03-01T03:46:41.581Z,101047.84
2023-03-01T03:49:10.219Z,101041.88
2023-03-01T03:51:38.579Z,101050.56
2023-03-01T03:54:07.432Z,101051.53
2023-03-01T03:56:36.189Z,101047.16
2023-03-01T03:59:04.810Z,101041.88
2023-03-01T04:01:33.308Z,101049.81
2023-03-01T04:04:05.353Z,101053.56
2023-03-01T04:06:33.989Z,101039.56
2023-03-01T04:09:03.586Z,101038.72
2023-03-01T04:11:32.442Z,101037.84
2023-03-01T04:14:01.398Z,101038.81
2023-03-01T04:16:30.227Z,101035.31
2023-03-01T04:19:01.017Z,101030.22
2023-03-01T04:21:29.418Z,101033.59
2023-03-01T04:23:58.226Z,101032.75
2023-03-01T04:26:26.569Z,101030.22
2023-03-01T04:28:55.269Z,101030.22
2023-03-01T04:31:23.960Z,101021.53
2023-03-01T04:33:54.862Z,101032.22
2023-03-01T04:36:28.895Z,101028.75
2023-03-01T04:38:57.913Z,101028.09
2023-03-01T04:41:26.679Z,101026.09
2023-03-01T04:43:55.448Z,101029.81
2023-03-01T04:46:23.963Z,101029.81
2023-03-01T04:48:52.740Z,101028.84
2023-03-01T04:51:21.138Z,101028.94
2023-03-01T04:53:50.060Z,101031.72
2023-03-01T04:56:24.289Z,101024.06
2023-03-01T04:58:55.384Z,101030.13
2023-03-01T05:01:23.699Z,101033.63
2023-03-01T05:03:52.794Z,101039.88
2023-03-01T05:06:22.139Z,101028.53
2023-03-01T05:08:50.977Z,101026.53
2023-03-01T05:11:19.319Z,101026.28
2023-03-01T05:13:48.180Z,101019.84
2023-03-01T05:16:18.063Z,101008.91
2023-03-01T05:18:47.218Z,101012.19
2023-03-01T05:21:17.464Z,101011.53
2023-03-01T05:23:48.035Z,101022.56
2023-03-01T05:26:34.040Z,101012.81
2023-03-01T05:29:02.785Z,101016.19
2023-03-01T05:31:32.156Z,101008.72
2023-03-01T05:34:00.951Z,101006.97
2023-03-01T05:36:29.557Z,101009.94
2023-03-01T05:38:58.789Z,101009.22
2023-03-01T05:41:27.172Z,101009.03
2023-03-01T05:43:55.888Z,101020.91
2023-03-01T05:46:25.742Z,101027.22
2023-03-01T05:48:54.466Z,101020.50
2023-03-01T05:51:23.406Z,101009.56
2023-03-01T05:53:52.089Z,101014.19
2023-03-01T05:56:23.436Z,101007.09
2023-03-01T05:58:52.281Z,101014.56
2023-03-01T06:01:20.665Z,101015.06
2023-03-01T06:03:49.733Z,101016.28
2023-03-01T06:06:18.112Z,101021.28
2023-03-01T06:08:46.970Z,101024.19
2023-03-01T06:11:15.380Z,101021.06
2023-03-01T06:13:45.122Z,101021.03
2023-03-01T06:16:14.057Z,101013.69
2023-03-01T06:18:42.960Z,101025.66
2023-03-01T06:21:11.382Z,101021.16
2023-03-01T06:23:39.972Z,101030.25
2023-03-01T06:26:08.917Z,101026.63
2023-03-01T06:28:37.935Z,101028.19
2023-03-01T06:31:09.968Z,101010.41
2023-03-01T06:33:38.816Z,101016.81
2023-03-01T06:36:08.144Z,100991.69
2023-03-01T06:38:36.991Z,100999.06
2023-03-01T06:41:05.512Z,101006.44
2023-03-01T06:43:34.515Z,101009.56
2023-03-01T06:46:08.141Z,101001.19
2023-03-01T06:48:36.927Z,101003.03
2023-03-01T06:51:05.491Z,100998.19
2023-03-01T06:53:34.492Z,101010.50
2023-03-01T06:56:02.732Z,101002.16
2023-03-01T06:58:31.613Z,101008.31
2023-03-01T07:01:00.090Z,101009.75
2023-03-01T07:03:28.825Z,101015.66
2023-03-01T07:05:57.340Z,101011.66
2023-03-01T07:08:26.113Z,101014.78
2023-03-01T07:10:58.847Z,101008.88
2023-03-01T07:13:27.708Z,101013.41
2023-03-01T07:15:56.088Z,100998.56
2023-03-01T07:18:25.007Z,100994.66
2023-03-01T07:20:53.493Z,101002.63
2023-03-01T07:23:22.469Z,101000.97
2023-03-01T07:25:56.918Z,100997.56
2023-03-01T07:28:25.839Z,100994.28
2023-03-01T07:30:54.376Z,100994.41
2023-03-01T07:33:23.107Z,101001.03
2023-03-01T07:36:01.088Z,101001.03
2023-03-01T07:38:30.302Z,100996.59
2023-03-01T07:41:03.139Z,100991.59
2023-03-01T07:43:32.022Z,100998.84
2023-03-01T07:46:02.084Z,100992.91
2023-03-01T07:48:31.465Z,100999.91
2023-03-01T07:51:05.056Z,100976.22
2023-03-01T07:53:35.420Z,100955.34
2023-03-01T07:56:12.206Z,100953.16
2023-03-01T07:58:43.735Z,100965.13
2023-03-01T08:01:15.390Z,100950.50
2023-03-01T08:03:44.929Z,100958.47
2023-03-01T08:06:15.197Z,100953.25
2023-03-01T08:08:44.160Z,100952.28
2023-03-01T08:11:13.997Z,100942.84
2023-03-01T08:13:43.677Z,100945.50
2023-03-01T08:16:14.771Z,100939.81
2023-03-01T08:18:44.364Z,100930.28
2023-03-01T08:21:15.421Z,100928.69
2023-03-01T08:23:44.437Z,100923.28
2023-03-01T08:26:19.668Z,100921.59
2023-03-01T08:28:49.545Z,100931.03
2023-03-01T08:31:40.417Z,100931.97
2023-03-01T08:34:12.690Z,100926.16
2023-03-01T08:36:43.611Z,100923.53
2023-03-01T08:39:14.587Z,100928.31
2023-03-01T08:41:43.237Z,100931.06
2023-03-01T08:44:13.177Z,100924.66
2023-03-01T08:46:42.663Z,100929.72
2023-03-01T08:49:15.448Z,100916.56
2023-03-01T08:51:44.850Z,100908.22
2023-03-01T08:54:19.765Z,100920.53
2023-03-01T08:56:48.326Z,100904.09
2023-03-01T08:59:18.443Z,100916.38
2023-03-01T09:01:47.041Z,100893.69
2023-03-01T09:04:16.489Z,100883.94
2023-03-01T09:06:44.999Z,100877.78
2023-03-01T09:09:18.443Z,100888.38
2023-03-01T09:11:47.598Z,100885.25
2023-03-01T09:14:16.657Z,100888.63
2023-03-01T09:16:45.219Z,100874.84
2023-03-01T09:19:14.105Z,100872.09
2023-03-01T09:21:42.626Z,100874.84
2023-03-01T09:24:15.648Z,100852.69
2023-03-01T09:26:48.857Z,100877.59
2023-03-01T09:29:19.153Z,100871.56
2023-03-01T09:31:47.630Z,100877.75
2023-03-01T09:34:20.465Z,100886.75
2023-03-01T09:36:48.821Z,100883.25
2023-03-01T09:39:19.058Z,100872.66
2023-03-01T09:42:05.400Z,100859.56
2023-03-01T09:45:07.964Z,100862.34
2023-03-01T09:47:37.333Z,100866.06
2023-03-01T09:50:18.578Z,100851.00
2023-03-01T09:52:52.334Z,100839.53
2023-03-01T09:55:29.464Z,100844.72
2023-03-01T09:58:22.902Z,100833.50
2023-03-01T10:00:51.701Z,100835.19
2023-03-01T10:03:38.406Z,100832.66
2023-03-01T10:06:34.078Z,100808.09
2023-03-01T10:09:18.045Z,100835.41
2023-03-01T10:11:49.397Z,100833.59
2023-03-01T10:14:38.495Z,100836.38
2023-03-01T10:17:36.406Z,100841.69
2023-03-01T10:20:48.126Z,100832.28
2023-03-01T10:23:16.804Z,100840.97
2023-03-01T10:26:25.502Z,100832.28
2023-03-01T10:29:03.733Z,100833.94
2023-03-01T10:31:52.389Z,100831.41
2023-03-01T10:34:28.627Z,100834.19
2023-03-01T10:37:11.099Z,100824.53
2023-03-01T10:39:56.255Z,100821.88
2023-03-01T10:42:32.550Z,100816.56
2023-03-01T10:45:35.995Z,100809.56
2023-03-01T10:48:14.587Z,100814.03
2023-03-01T10:50:46.336Z,100815.84
2023-03-01T10:53:35.923Z,100812.47
2023-03-01T10:56:14.615Z,100808.81
2023-03-01T10:59:04.657Z,100796.91
2023-03-01T11:01:36.894Z,100798.56
2023-03-01T11:04:08.412Z,100804.50
2023-03-01T11:06:43.403Z,100802.69
2023-03-01T11:09:25.773Z,100803.88
2023-03-01T11:11:59.046Z,100814.28
2023-03-01T11:14:31.888Z,100807.59
2023-03-01T11:17:16.216Z,100817.13
2023-03-01T11:19:54.210Z,100811.94
2023-03-01T11:22:29.699Z,100811.09
2023-03-01T11:25:09.293Z,100809.53
2023-03-01T11:27:43.574Z,100820.00
2023-03-01T11:30:28.004Z,100809.97
2023-03-01T11:33:13.072Z,100833.50
2023-03-01T11:36:08.503Z,100829.13
2023-03-01T11:38:37.475Z,100832.75
2023-03-01T11:41:19.529Z,100825.75
2023-03-01T11:43:55.729Z,100833.59
2023-03-01T11:46:33.311Z,100827.91
2023-03-01T11:49:26.752Z,100837.22
2023-03-01T11:52:15.662Z,100847.69
2023-03-01T11:55:30.049Z,100849.41
2023-03-01T11:58:26.848Z,100840.53
2023-03-01T12:01:25.557Z,100856.00
2023-03-01T12:04:24.934Z,100844.22
2023-03-01T13:01:16.542Z,100810.19
2023-03-01T13:04:28.697Z,100800.53
2023-03-01T13:07:12.063Z,100790.78
2023-03-01T13:10:33.668Z,100786.44
2023-03-01T13:13:26.199Z,100782.94
2023-03-01T13:15:55.527Z,100777.66
2023-03-01T13:18:24.482Z,100787.41
2023-03-01T13:20:58.615Z,100789.44
2023-03-01T13:23:37.771Z,100788.47
2023-03-01T13:26:26.965Z,100795.47
2023-03-01T13:28:58.514Z,100780.50
2023-03-01T13:31:27.382Z,100772.91
2023-03-01T13:33:57.382Z,100771.94
2023-03-01T13:36:30.060Z,100784.13
2023-03-01T13:39:04.165Z,100770.97
2023-03-01T13:41:44.885Z,100768.44
2023-03-01T13:44:40.079Z,100769.41
2023-03-01T13:47:09.644Z,100767.50
2023-03-01T13:49:59.811Z,100767.72
2023-03-01T13:52:55.723Z,100764.31
2023-03-01T13:55:43.125Z,100763.03
2023-03-01T13:58:22.718Z,100777.22
2023-03-01T14:01:04.712Z,100760.84
2023-03-01T14:03:35.310Z,100773.00
2023-03-01T14:06:15.419Z,100769.41
2023-03-01T14:08:47.042Z,100776.50
2023-03-01T14:11:26.178Z,100773.97
2023-03-01T14:14:19.398Z,100777.69
2023-03-01T14:17:24.875Z,100772.63
2023-03-01T14:20:21.639Z,100778.66
2023-03-01T14:22:53.106Z,100788.41
2023-03-01T14:25:31.273Z,100798.16
2023-03-01T14:28:14.785Z,100786.81
2023-03-01T14:30:57.504Z,100797.31
2023-03-01T14:33:42.315Z,100797.41
2023-03-01T14:36:12.847Z,100788.84
2023-03-01T14:38:46.352Z,100783.53
2023-03-01T14:41:26.923Z,100797.41
2023-03-01T14:44:08.182Z,100783.44
2023-03-01T14:46:39.577Z,100796.47
2023-03-01T14:49:16.886Z,100794.13
2023-03-01T14:52:03.586Z,100783.66
2023-03-01T14:54:45.576Z,100775.81
2023-03-01T14:57:23.112Z,100787.16
2023-03-01T14:59:57.067Z,100779.41
2023-03-01T15:02:29.300Z,100780.88
2023-03-01T15:05:01.924Z,100778.38
2023-03-01T15:07:35.558Z,100760.22
2023-03-01T15:10:06.505Z,100775.81
2023-03-01T15:12:40.946Z,100773.91
2023-03-01T15:15:48.421Z,100775.81
2023-03-01T15:18:23.366Z,100772.94
2023-03-01T15:20:51.863Z,100767.13
2023-03-01T15:23:28.906Z,100770.72
2023-03-01T15:25:57.756Z,100774.00
2023-03-01T15:28:44.571Z,100774.25
2023-03-01T15:31:24.659Z,100776.91
2023-03-01T15:33:53.543Z,100776.03
2023-03-01T15:36:44.343Z,100782.41
2023-03-01T15:39:38.693Z,100774.56
2023-03-01T15:42:13.930Z,100778.91
2023-03-01T15:44:48.696Z,100767.06
2023-03-01T15:47:51.336Z,100774.81
2023-03-01T15:50:28.941Z,100774.81
2023-03-01T15:52:58.015Z,100776.81
2023-03-01T15:55:30.810Z,100778.41
2023-03-01T15:58:24.077Z,100769.91
2023-03-01T16:01:01.879Z,100771.63
2023-03-01T16:03:31.033Z,100769.06
2023-03-01T16:05:59.927Z,100766.53
2023-03-01T16:08:28.550Z,100771.63
2023-03-01T16:10:57.513Z,100770.16
2023-03-01T16:13:28.338Z,100775.84
2023-03-01T16:15:58.753Z,100762.28
2023-03-01T16:18:27.253Z,100783.03
2023-03-01T16:20:56.519Z,100789.91
2023-03-01T16:23:26.262Z,100796.56
2023-03-01T16:25:55.088Z,100805.06
2023-03-01T16:28:23.570Z,100799.50
2023-03-01T16:30:52.631Z,100804.88
2023-03-01T16:33:28.995Z,100814.94
2023-03-01T16:36:11.172Z,100813.53
2023-03-01T16:38:39.904Z,100820.47
2023-03-01T16:41:17.369Z,100820.03
2023-03-01T16:43:47.766Z,100822.44
2023-03-01T16:46:29.729Z,100829.16
2023-03-01T16:48:58.421Z,100829.91
2023-03-01T16:51:27.234Z,100833.34
2023-03-01T16:53:55.863Z,100842.38
2023-03-01T16:56:24.806Z,100844.72
2023-03-01T16:58:53.321Z,100835.44
2023-03-01T17:01:25.658Z,100845.72
2023-03-01T17:03:54.420Z,100849.59
2023-03-01T17:06:24.905Z,100846.22
2023-03-01T17:08:53.448Z,100850.81
2023-03-01T17:11:22.519Z,100851.66
2023-03-01T17:13:51.246Z,100859.66
2023-03-01T17:16:21.354Z,100865.34
2023-03-01T17:18:50.308Z,100862.81
2023-03-01T17:21:19.184Z,100872.13
2023-03-01T17:23:48.278Z,100875.72
2023-03-01T17:26:17.775Z,100876.19
2023-03-01T17:28:52.631Z,100878.75
2023-03-01T17:31:22.051Z,100881.50
2023-03-01T17:33:51.420Z,100888.88
2023-03-01T17:36:20.289Z,100892.50
2023-03-01T17:38:50.054Z,100890.31
2023-03-01T17:41:19.720Z,100888.63
2023-03-01T17:43:48.470Z,100888.00
2023-03-01T17:46:17.627Z,100892.69
2023-03-01T17:48:46.260Z,100900.06
2023-03-01T17:51:15.251Z,100896.66
2023-03-01T17:53:43.912Z,100894.88
2023-03-01T17:56:12.992Z,100904.25
2023-03-01T17:58:41.598Z,100897.72
2023-03-01T18:01:13.009Z,100904.00
2023-03-01T18:03:42.354Z,100909.41
2023-03-01T18:06:17.877Z,100908.59
2023-03-01T18:08:46.820Z,100904.47
2023-03-01T18:11:16.009Z,100905.09
2023-03-01T18:13:45.572Z,100901.75
2023-03-01T18:16:20.441Z,100899.94
2023-03-01T18:18:53.726Z,100903.00
2023-03-01T18:21:23.821Z,100906.16
2023-03-01T18:23:52.752Z,100907.13
2023-03-01T18:26:23.020Z,100908.03
2023-03-01T18:28:52.562Z,100911.16
2023-03-01T18:31:22.924Z,100912.38
2023-03-01T18:33:55.273Z,100916.00
2023-03-01T18:36:30.420Z,100918.06
2023-03-01T18:38:59.348Z,100914.78
2023-03-01T18:41:28.622Z,100917.75
2023-03-01T18:43:57.728Z,100908.59
2023-03-01T18:46:27.261Z,100920.56
2023-03-01T18:48:56.003Z,100926.19
2023-03-01T18:51:27.323Z,100919.56
2023-03-01T18:53:58.835Z,100924.13
2023-03-01T18:56:30.077Z,100919.06
2023-03-01T18:59:00.570Z,100932.09
2023-03-01T19:01:30.918Z,100930.66
2023-03-01T19:03:59.890Z,100922.22
2023-03-01T19:06:34.794Z,100928.94
2023-03-01T19:09:04.045Z,100928.31
2023-03-01T19:11:33.826Z,100936.28
2023-03-01T19:14:02.521Z,100934.56
2023-03-01T19:16:32.936Z,100953.41
2023-03-01T19:19:03.410Z,100950.34
2023-03-01T19:21:32.868Z,100955.66
2023-03-01T19:24:02.735Z,100964.63
2023-03-01T19:26:32.396Z,100953.72
2023-03-01T19:29:01.485Z,100949.47
2023-03-01T19:31:31.220Z,100958.50
2023-03-01T19:34:10.315Z,100956.31
2023-03-01T19:36:42.926Z,100951.94
2023-03-01T19:39:13.994Z,100959.09
2023-03-01T19:41:43.847Z,100960.38
2023-03-01T19:44:12.866Z,100968.97
2023-03-01T19:46:42.073Z,100965.47
2023-03-01T19:49:10.692Z,100963.91
2023-03-01T19:51:39.674Z,100966.56
2023-03-01T19:54:10.042Z,100966.66
2023-03-01T19:56:40.887Z,100972.19
2023-03-01T19:59:09.497Z,100972.19
2023-03-01T20:01:42.646Z,100975.34
2023-03-01T20:04:11.606Z,100982.13
2023-03-01T20:06:41.797Z,100987.72
2023-03-01T20:09:21.540Z,100985.47
2023-03-01T20:11:51.782Z,100976.47
2023-03-01T20:14:23.600Z,100984.47
2023-03-01T20:16:53.113Z,100979.94
2023-03-01T20:19:22.058Z,100990.69
2023-03-01T20:21:51.918Z,100989.66
2023-03-01T20:24:21.488Z,100994.75
2023-03-01T20:26:51.600Z,100999.22
2023-03-01T20:29:20.375Z,101001.09
2023-03-01T20:31:50.188Z,101002.19
2023-03-01T20:34:20.425Z,101008.47
2023-03-01T20:36:50.310Z,101001.44
2023-03-01T20:39:20.013Z,101012.22
2023-03-01T20:41:50.443Z,101014.13
2023-03-01T20:44:20.220Z,101012.78
2023-03-01T20:46:52.014Z,101015.66
2023-03-01T20:49:22.941Z,101018.66
2023-03-01T20:51:55.951Z,101015.41
2023-03-01T20:54:25.880Z,101016.59
2023-03-01T20:56:55.755Z,101020.44
2023-03-01T20:59:24.795Z,101023.31
2023-03-01T21:01:54.277Z,101011.22
2023-03-01T21:04:23.432Z,101017.63
2023-03-01T21:06:53.486Z,101018.91
2023-03-01T21:09:23.682Z,101017.00
2023-03-01T21:11:52.726Z,101013.09
2023-03-01T21:14:22.048Z,101015.84
2023-03-01T21:16:51.322Z,101022.22
2023-03-01T21:19:23.505Z,101014.63
2023-03-01T21:21:53.777Z,101003.38
2023-03-01T21:24:22.358Z,101012.06
2023-03-01T21:26:51.146Z,101007.84
2023-03-01T21:29:19.665Z,101014.19
2023-03-01T21:31:48.555Z,101009.13
2023-03-01T21:34:17.090Z,101018.91
2023-03-01T21:36:46.021Z,101014.66
2023-03-01T21:39:15.020Z,101023.59
2023-03-01T21:41:43.819Z,101017.53
2023-03-01T21:44:12.300Z,101022.13
2023-03-01T21:46:41.534Z,101020.59
2023-03-01T21:49:11.265Z,101014.56
2023-03-01T21:51:40.256Z,101022.53
2023-03-01T21:54:10.261Z,101021.94
2023-03-01T21:56:39.813Z,101016.72
2023-03-01T21:59:16.486Z,101016.72
2023-03-01T22:01:45.549Z,101015.13
2023-03-01T22:04:14.301Z,101017.91
2023-03-01T22:06:45.280Z,101013.78
2023-03-01T22:09:19.661Z,101019.81
2023-03-01T22:12:02.818Z,101018.22
2023-03-01T22:14:31.798Z,101021.84
2023-03-01T22:17:00.715Z,101012.16
2023-03-01T22:19:29.336Z,101017.47
2023-03-01T22:21:58.150Z,101012.31
2023-03-01T22:24:26.798Z,101005.38
2023-03-01T22:26:55.734Z,100999.25
2023-03-01T22:29:29.244Z,100995.94
2023-03-01T22:31:58.709Z,100988.72
2023-03-01T22:34:27.476Z,100992.44
2023-03-01T22:36:56.693Z,100995.09
2023-03-01T22:39:25.303Z,100990.97
2023-03-01T22:41:54.653Z,100987.56
2023-03-01T22:44:23.718Z,100992.66
2023-03-01T22:46:52.683Z,101000.59
2023-03-01T22:49:21.579Z,100987.78
2023-03-01T22:51:50.682Z,100989.91
2023-03-01T22:54:19.672Z,100996.06
2023-03-01T22:56:48.716Z,101000.00
2023-03-01T22:59:23.306Z,100990.13
2023-03-01T23:01:53.008Z,100987.03
2023-03-01T23:04:22.086Z,100982.38
2023-03-01T23:06:50.975Z,100992.25
2023-03-01T23:09:26.649Z,100989.69
2023-03-01T23:11:55.754Z,100989.84
2023-03-01T23:14:25.423Z,100988.84
2023-03-01T23:16:54.398Z,100987.19
2023-03-01T23:19:23.230Z,100982.09
2023-03-01T23:21:54.568Z,100982.91
2023-03-01T23:24:24.292Z,100966.72
2023-03-01T23:26:55.863Z,100979.66
2023-03-01T23:29:24.360Z,100970.84
2023-03-01T23:31:56.106Z,100977.22
2023-03-01T23:34:25.746Z,100974.66
2023-03-01T23:36:55.076Z,100982.50
2023-03-01T23:39:23.688Z,100977.31
2023-03-01T23:41:52.454Z,100961.75
2023-03-01T23:44:21.430Z,100967.78
2023-03-01T23:46:50.819Z,100951.34
2023-03-01T23:49:20.758Z,100959.81
2023-03-01T23:51:49.743Z,100968.72
2023-03-01T23:54:21.028Z,100967.25
2023-03-01T23:56:50.300Z,100974.47
2023-03-01T23:59:22.115Z,100970.72
